Time;durP1;ratioP1;P1;durP2;ratioP2;P2;SDS_P1;SDS_P2;PMS_P1;PMS_P2;Temp;Humidity;BMP_temperature;BMP_pressure;BME280_temperature;BME280_humidity;BME280_pressure;Samples;Min_cycle;Max_cycle;Signal;HPM_P1;HPM_P2
2023/01/12 00:02:12;;;;;;;0.93;0.73;;;;;;;;;;5159680;27;20197;-65
2023/01/12 00:04:40;;;;;;;1.20;0.80;;;;;;;;;;5158959;27;20205;-64
2023/01/12 00:07:08;;;;;;;0.77;0.77;;;;;;;;;;5159413;27;20485;-65
2023/01/12 00:09:37;;;;;;;1.13;0.88;;;;;;;;;;5159618;27;20211;-66
2023/01/12 00:12:06;;;;;;;1.55;0.73;;;;;;;;;;5158864;27;20285;-65
2023/01/12 00:14:34;;;;;;;1.15;0.65;;;;;;;;;;5159326;27;20205;-65
2023/01/12 00:17:02;;;;;;;0.90;0.73;;;;;;;;;;5159895;27;20228;-64
2023/01/12 00:19:29;;;;;;;0.70;0.70;;;;;;;;;;5159473;27;20201;-65
2023/01/12 00:22:01;;;;;;;1.05;0.70;;;;;;;;;;5159803;27;20198;-65
2023/01/12 00:24:29;;;;;;;0.80;0.70;;;;;;;;;;5159549;27;20209;-65
2023/01/12 00:27:00;;;;;;;0.90;0.60;;;;;;;;;;5159189;27;20211;-65
2023/01/12 00:29:28;;;;;;;0.70;0.68;;;;;;;;;;5159362;27;20477;-65
2023/01/12 00:31:56;;;;;;;0.80;0.73;;;;;;;;;;5159362;27;20520;-65
2023/01/12 00:34:24;;;;;;;0.82;0.63;;;;;;;;;;5158200;27;20202;-65
2023/01/12 00:36:51;;;;;;;1.13;0.80;;;;;;;;;;5159489;27;20278;-65
2023/01/12 00:39:19;;;;;;;1.05;0.80;;;;;;;;;;5158893;27;20202;-65
2023/01/12 00:47:24;;;;;;;1.63;0.80;;;;;;;;;;5142060;27;20204;-64
2023/01/12 00:49:52;;;;;;;1.13;0.88;;;;;;;;;;5162980;27;20240;-65
2023/01/12 00:52:20;;;;;;;0.80;0.68;;;;;;;;;;5163453;27;20217;-65
2023/01/12 00:54:48;;;;;;;1.02;0.80;;;;;;;;;;5163456;27;20233;-65
2023/01/12 00:57:16;;;;;;;1.42;0.90;;;;;;;;;;5163476;27;20208;-65
2023/01/12 00:59:46;;;;;;;1.75;0.90;;;;;;;;;;5163563;27;20266;-65
2023/01/12 01:02:14;;;;;;;1.13;0.98;;;;;;;;;;5163255;27;20277;-65
2023/01/12 01:04:41;;;;;;;1.20;0.65;;;;;;;;;;5163238;27;20603;-66
2023/01/12 01:07:09;;;;;;;0.95;0.80;;;;;;;;;;5163175;27;20298;-65
2023/01/12 01:09:37;;;;;;;0.85;0.60;;;;;;;;;;5162776;27;20226;-65
2023/01/12 01:12:05;;;;;;;1.50;0.65;;;;;;;;;;5162904;27;20240;-65
2023/01/12 01:14:32;;;;;;;1.52;0.77;;;;;;;;;;5162489;27;20245;-65
2023/01/12 01:17:02;;;;;;;1.15;0.80;;;;;;;;;;5163020;27;20212;-65
2023/01/12 01:19:29;;;;;;;1.45;0.70;;;;;;;;;;5162307;27;20208;-65
2023/01/12 01:21:57;;;;;;;1.48;0.60;;;;;;;;;;5162512;27;20197;-65
2023/01/12 01:24:25;;;;;;;1.20;0.80;;;;;;;;;;5162423;27;20218;-65
2023/01/12 01:26:53;;;;;;;1.58;0.85;;;;;;;;;;5162747;27;20215;-65
2023/01/12 01:29:20;;;;;;;1.13;0.75;;;;;;;;;;5162543;27;20585;-65
2023/01/12 01:31:48;;;;;;;1.25;0.77;;;;;;;;;;5162798;27;20290;-65
2023/01/12 01:34:17;;;;;;;2.00;0.75;;;;;;;;;;5162361;27;20201;-65
2023/01/12 01:36:45;;;;;;;1.35;0.77;;;;;;;;;;5162018;27;20201;-65
2023/01/12 01:39:13;;;;;;;1.85;0.90;;;;;;;;;;5162185;27;20202;-65
2023/01/12 01:41:40;;;;;;;1.02;0.68;;;;;;;;;;5162648;27;20201;-65
2023/01/12 01:44:23;;;;;;;0.68;0.68;;;;;;;;;;5162214;27;20478;-65
2023/01/12 01:46:53;;;;;;;0.70;0.70;;;;;;;;;;5161730;27;20202;-65
2023/01/12 01:49:33;;;;;;;1.40;0.88;;;;;;;;;;5162147;27;20201;-65
2023/01/12 01:52:02;;;;;;;1.75;0.80;;;;;;;;;;5162014;27;20221;-65
2023/01/12 01:54:32;;;;;;;1.05;0.80;;;;;;;;;;5161945;27;20667;-65
2023/01/12 01:57:00;;;;;;;1.50;0.95;;;;;;;;;;5161489;27;20205;-65
2023/01/12 01:59:31;;;;;;;1.55;0.88;;;;;;;;;;5162090;27;20202;-65
2023/01/12 02:02:00;;;;;;;1.33;0.70;;;;;;;;;;5162015;27;20285;-65
2023/01/12 02:04:27;;;;;;;1.05;0.82;;;;;;;;;;5162280;27;20201;-65
2023/01/12 02:06:57;;;;;;;1.85;0.60;;;;;;;;;;5162514;27;20201;-65
2023/01/12 02:09:25;;;;;;;1.95;0.80;;;;;;;;;;5162111;27;20208;-65
2023/01/12 02:17:35;;;;;;;1.02;0.65;;;;;;;;;;5127160;27;20254;-65
2023/01/12 02:20:27;;;;;;;1.35;0.68;;;;;;;;;;5161978;27;20202;-64
2023/01/12 02:23:21;;;;;;;1.10;0.82;;;;;;;;;;5137132;27;20197;-64
2023/01/12 02:26:09;;;;;;;1.40;0.70;;;;;;;;;;5102179;27;20202;-64
2023/01/12 02:29:00;;;;;;;1.52;0.70;;;;;;;;;;5161138;27;20208;-65
2023/01/12 02:31:36;;;;;;;1.40;0.85;;;;;;;;;;5067472;27;20248;-64
2023/01/12 02:34:10;;;;;;;1.70;0.70;;;;;;;;;;5161359;27;20224;-64
2023/01/12 02:36:43;;;;;;;1.27;0.63;;;;;;;;;;5161463;27;20201;-66
2023/01/12 02:39:15;;;;;;;1.60;0.98;;;;;;;;;;5160786;27;20258;-64
2023/01/12 02:44:32;;;;;;;1.40;0.73;;;;;;;;;;5160839;27;20212;-66
2023/01/12 02:47:02;;;;;;;0.75;0.65;;;;;;;;;;5161304;27;20581;-66
2023/01/12 02:49:32;;;;;;;1.63;0.60;;;;;;;;;;5161271;27;20281;-64
2023/01/12 02:52:02;;;;;;;1.65;0.75;;;;;;;;;;5161380;27;20540;-64
2023/01/12 02:54:31;;;;;;;1.15;0.70;;;;;;;;;;5160832;27;20237;-64
2023/01/12 02:57:02;;;;;;;1.00;0.60;;;;;;;;;;5161095;27;20209;-64
2023/01/12 02:59:31;;;;;;;1.52;0.73;;;;;;;;;;5160790;27;20201;-64
2023/01/12 03:02:00;;;;;;;2.42;0.70;;;;;;;;;;5161187;27;20270;-65
2023/01/12 03:04:30;;;;;;;1.30;0.77;;;;;;;;;;5160728;27;20205;-64
2023/01/12 03:07:25;;;;;;;1.33;0.73;;;;;;;;;;5160741;27;20258;-64
2023/01/12 03:09:55;;;;;;;1.02;0.60;;;;;;;;;;5101280;27;20209;-64
2023/01/12 03:12:24;;;;;;;1.50;0.80;;;;;;;;;;5160850;27;20636;-64
2023/01/12 03:14:54;;;;;;;1.75;0.65;;;;;;;;;;5160644;27;20296;-64
2023/01/12 03:17:24;;;;;;;1.92;0.90;;;;;;;;;;5160253;27;20265;-64
2023/01/12 03:19:53;;;;;;;1.08;0.75;;;;;;;;;;5160533;27;20504;-65
2023/01/12 03:22:22;;;;;;;1.67;0.80;;;;;;;;;;5160381;27;20237;-66
2023/01/12 03:24:50;;;;;;;1.83;0.70;;;;;;;;;;5159695;27;20198;-65
2023/01/12 03:27:19;;;;;;;1.88;0.80;;;;;;;;;;5160279;27;20198;-65
2023/01/12 03:29:49;;;;;;;1.10;0.70;;;;;;;;;;5160008;27;20201;-65
2023/01/12 03:32:17;;;;;;;1.67;0.90;;;;;;;;;;5160037;27;20228;-65
2023/01/12 03:34:44;;;;;;;1.25;0.75;;;;;;;;;;5159834;27;20202;-65
2023/01/12 03:37:16;;;;;;;1.20;0.60;;;;;;;;;;5159961;27;20212;-65
2023/01/12 03:39:51;;;;;;;1.23;0.85;;;;;;;;;;5160126;27;20296;-65
2023/01/12 03:42:22;;;;;;;1.55;0.90;;;;;;;;;;5159851;27;20557;-65
2023/01/12 03:44:53;;;;;;;1.45;0.90;;;;;;;;;;5159917;27;20607;-65
2023/01/12 03:47:24;;;;;;;1.77;0.98;;;;;;;;;;5159532;27;20561;-65
2023/01/12 03:49:54;;;;;;;1.20;0.77;;;;;;;;;;5159881;27;20262;-65
2023/01/12 03:52:24;;;;;;;1.48;0.70;;;;;;;;;;5159364;27;20201;-65
2023/01/12 03:54:53;;;;;;;0.90;0.65;;;;;;;;;;5159320;27;20238;-65
2023/01/12 03:57:21;;;;;;;1.20;0.63;;;;;;;;;;5143306;27;20207;-65
2023/01/12 03:59:48;;;;;;;1.30;0.90;;;;;;;;;;5138806;27;20285;-65
2023/01/12 04:02:16;;;;;;;1.38;0.82;;;;;;;;;;5138739;27;20310;-64
2023/01/12 04:04:44;;;;;;;1.42;0.70;;;;;;;;;;5138421;27;20206;-65
2023/01/12 04:07:12;;;;;;;1.42;0.85;;;;;;;;;;5138704;27;20301;-65
2023/01/12 04:09:41;;;;;;;1.27;0.85;;;;;;;;;;5138533;27;20212;-65
2023/01/12 04:12:11;;;;;;;1.20;0.85;;;;;;;;;;5138779;27;20202;-65
2023/01/12 04:14:38;;;;;;;1.48;0.80;;;;;;;;;;5138464;27;20738;-65
2023/01/12 04:17:06;;;;;;;1.88;0.80;;;;;;;;;;5138122;28;20203;-65
2023/01/12 04:19:34;;;;;;;1.88;1.00;;;;;;;;;;5138155;27;20202;-65
2023/01/12 04:24:48;;;;;;;1.80;0.70;;;;;;;;;;5138535;28;20193;-66
2023/01/12 04:27:16;;;;;;;2.22;0.80;;;;;;;;;;5138513;28;20233;-65
2023/01/12 04:29:44;;;;;;;1.48;0.70;;;;;;;;;;5138037;28;20202;-65
2023/01/12 04:32:12;;;;;;;1.23;0.90;;;;;;;;;;5138753;28;20202;-65
2023/01/12 04:34:39;;;;;;;1.52;0.90;;;;;;;;;;5138042;28;20222;-65
2023/01/12 04:37:07;;;;;;;1.63;0.77;;;;;;;;;;5138250;28;20233;-65
2023/01/12 04:39:35;;;;;;;1.65;0.93;;;;;;;;;;5138281;28;20605;-65
2023/01/12 04:42:04;;;;;;;1.45;0.70;;;;;;;;;;5137947;28;20213;-64
2023/01/12 04:44:33;;;;;;;1.77;0.90;;;;;;;;;;5137455;28;20206;-66
2023/01/12 04:47:01;;;;;;;2.00;0.80;;;;;;;;;;5137912;28;20301;-66
2023/01/12 04:49:29;;;;;;;2.20;0.93;;;;;;;;;;5137967;28;20566;-65
2023/01/12 04:51:56;;;;;;;1.25;0.98;;;;;;;;;;5137570;28;20570;-65
2023/01/12 04:54:24;;;;;;;0.63;0.60;;;;;;;;;;5137687;27;20230;-65
2023/01/12 04:56:52;;;;;;;1.13;0.90;;;;;;;;;;5137907;28;20278;-65
2023/01/12 04:59:21;;;;;;;1.88;0.95;;;;;;;;;;5137577;28;20566;-65
2023/01/12 05:01:48;;;;;;;1.70;0.85;;;;;;;;;;5137912;28;20212;-65
2023/01/12 05:04:16;;;;;;;1.17;0.82;;;;;;;;;;5137875;28;20198;-65
2023/01/12 05:06:43;;;;;;;1.35;0.70;;;;;;;;;;5137938;28;20708;-65
2023/01/12 05:11:56;;;;;;;2.05;0.95;;;;;;;;;;5137282;28;20581;-65
2023/01/12 05:14:25;;;;;;;1.98;0.70;;;;;;;;;;5137709;28;20324;-65
2023/01/12 05:16:52;;;;;;;1.52;0.95;;;;;;;;;;5137833;28;20203;-65
2023/01/12 05:19:20;;;;;;;1.05;0.70;;;;;;;;;;5137340;28;20209;-65
2023/01/12 05:21:47;;;;;;;1.80;1.33;;;;;;;;;;5137497;28;20293;-65
2023/01/12 05:24:14;;;;;;;1.85;0.80;;;;;;;;;;5137847;28;20285;-65
2023/01/12 05:26:42;;;;;;;1.83;0.82;;;;;;;;;;5137415;28;20294;-65
2023/01/12 05:29:11;;;;;;;1.73;0.57;;;;;;;;;;5137402;28;20199;-65
2023/01/12 05:31:40;;;;;;;1.08;0.80;;;;;;;;;;5139586;27;20206;-65
2023/01/12 05:34:12;;;;;;;1.92;0.90;;;;;;;;;;5140303;27;20232;-65
2023/01/12 05:36:42;;;;;;;1.35;0.70;;;;;;;;;;5140271;27;20206;-66
2023/01/12 05:39:10;;;;;;;1.60;0.80;;;;;;;;;;5140169;27;20594;-65
2023/01/12 05:43:48;;;;;;;1.17;0.80;;;;;;;;;;5139573;27;20568;-66
2023/01/12 05:44:24;;;;;;;2.00;1.00;;;;;;;;;;5140239;27;20198;-65
2023/01/12 05:46:53;;;;;;;2.67;0.68;;;;;;;;;;5139607;27;20198;-67
2023/01/12 05:49:20;;;;;;;1.10;0.82;;;;;;;;;;5139477;27;20301;-64
2023/01/12 05:51:47;;;;;;;0.57;0.57;;;;;;;;;;5139610;27;20582;-64
2023/01/12 05:54:15;;;;;;;2.00;0.93;;;;;;;;;;5139068;27;20325;-66
2023/01/12 05:56:44;;;;;;;1.15;0.70;;;;;;;;;;5139133;27;20212;-65
2023/01/12 05:59:12;;;;;;;1.65;1.00;;;;;;;;;;5139099;27;20210;-64
2023/01/12 06:01:40;;;;;;;1.98;0.80;;;;;;;;;;5148841;27;20289;-66
2023/01/12 06:04:09;;;;;;;1.08;0.80;;;;;;;;;;5159138;27;20262;-66
2023/01/12 06:06:36;;;;;;;1.98;0.80;;;;;;;;;;5159098;27;20304;-66
2023/01/12 06:09:04;;;;;;;1.75;0.90;;;;;;;;;;5158939;27;20197;-67
2023/01/12 06:14:16;;;;;;;2.17;1.00;;;;;;;;;;5157425;27;20228;-65
2023/01/12 06:16:44;;;;;;;0.98;0.73;;;;;;;;;;5158752;27;20515;-64
2023/01/12 06:19:13;;;;;;;1.58;0.88;;;;;;;;;;5158752;27;20209;-64
2023/01/12 06:21:40;;;;;;;1.50;0.80;;;;;;;;;;5142842;27;20608;-65
2023/01/12 06:24:08;;;;;;;1.67;0.80;;;;;;;;;;5137601;27;20315;-64
2023/01/12 06:26:35;;;;;;;2.05;0.80;;;;;;;;;;5138118;27;20578;-64
2023/01/12 06:29:05;;;;;;;1.92;0.90;;;;;;;;;;5137744;27;20222;-64
2023/01/12 06:31:33;;;;;;;2.05;0.85;;;;;;;;;;5137344;27;20244;-65
2023/01/12 06:34:00;;;;;;;1.00;0.80;;;;;;;;;;5137113;27;20271;-66
2023/01/12 06:36:29;;;;;;;2.10;1.08;;;;;;;;;;5136712;27;20216;-66
2023/01/12 06:38:57;;;;;;;2.92;1.20;;;;;;;;;;5136947;27;20305;-67
2023/01/12 06:44:09;;;;;;;3.15;1.45;;;;;;;;;;5136413;27;20290;-67
2023/01/12 06:46:36;;;;;;;3.80;1.98;;;;;;;;;;5136914;27;20201;-66
2023/01/12 06:49:04;;;;;;;3.65;2.00;;;;;;;;;;5136680;27;20194;-64
2023/01/12 06:51:33;;;;;;;5.20;2.03;;;;;;;;;;5137209;27;20296;-66
2023/01/12 06:54:00;;;;;;;5.00;2.53;;;;;;;;;;5137121;27;20240;-66
2023/01/12 06:56:27;;;;;;;6.32;2.45;;;;;;;;;;5136788;27;20199;-66
2023/01/12 06:58:55;;;;;;;7.32;3.22;;;;;;;;;;5136884;27;20775;-66
2023/01/12 07:01:23;;;;;;;6.80;3.33;;;;;;;;;;5137177;27;20620;-64
2023/01/12 07:03:51;;;;;;;5.95;3.80;;;;;;;;;;5137034;27;20206;-64
2023/01/12 07:06:18;;;;;;;6.97;3.80;;;;;;;;;;5137202;27;20203;-64
2023/01/12 07:08:47;;;;;;;7.47;4.05;;;;;;;;;;5136873;27;20297;-66
2023/01/12 07:11:15;;;;;;;7.32;3.95;;;;;;;;;;5136403;27;20588;-65
2023/01/12 07:13:43;;;;;;;8.50;3.60;;;;;;;;;;5136919;27;20222;-65
2023/01/12 07:16:10;;;;;;;6.13;3.65;;;;;;;;;;5137015;27;20317;-67
2023/01/12 07:18:38;;;;;;;9.52;4.50;;;;;;;;;;5136409;27;20304;-64
2023/01/12 07:21:05;;;;;;;11.75;3.97;;;;;;;;;;5135439;27;20224;-66
2023/01/12 07:23:33;;;;;;;8.43;4.15;;;;;;;;;;5136011;27;20301;-67
2023/01/12 07:26:02;;;;;;;9.30;4.45;;;;;;;;;;5136009;27;20263;-66
2023/01/12 07:28:32;;;;;;;6.68;4.00;;;;;;;;;;5135820;27;20229;-66
2023/01/12 07:31:01;;;;;;;8.63;3.92;;;;;;;;;;5136264;27;20212;-66
2023/01/12 07:33:28;;;;;;;8.57;4.10;;;;;;;;;;5135395;27;20203;-66
2023/01/12 07:35:58;;;;;;;9.15;4.53;;;;;;;;;;5126110;27;20301;-67
2023/01/12 07:38:26;;;;;;;8.45;4.20;;;;;;;;;;5115315;28;20206;-66
2023/01/12 07:40:53;;;;;;;7.63;4.07;;;;;;;;;;5115165;28;20297;-66
2023/01/12 07:43:22;;;;;;;9.23;4.10;;;;;;;;;;5116356;28;20670;-64
2023/01/12 07:45:49;;;;;;;7.07;3.65;;;;;;;;;;5116023;28;20211;-64
2023/01/12 07:48:17;;;;;;;9.35;4.03;;;;;;;;;;5115768;28;20238;-66
2023/01/12 07:50:44;;;;;;;6.88;3.72;;;;;;;;;;5115458;28;20314;-66
2023/01/12 07:53:12;;;;;;;8.10;3.67;;;;;;;;;;5114921;28;20262;-64
2023/01/12 07:55:42;;;;;;;7.38;3.53;;;;;;;;;;5115986;28;20273;-64
2023/01/12 07:58:10;;;;;;;6.38;3.53;;;;;;;;;;5115312;28;20202;-66
2023/01/12 08:00:39;;;;;;;6.60;3.50;;;;;;;;;;5115269;28;20209;-66
2023/01/12 08:03:08;;;;;;;5.63;3.33;;;;;;;;;;5114579;28;20229;-66
2023/01/12 08:05:35;;;;;;;7.70;3.47;;;;;;;;;;5114703;28;20461;-67
2023/01/12 08:08:03;;;;;;;6.63;3.72;;;;;;;;;;5115260;28;20203;-66
2023/01/12 08:10:31;;;;;;;8.65;3.55;;;;;;;;;;5114931;28;20203;-66
2023/01/12 08:12:58;;;;;;;6.85;3.40;;;;;;;;;;5114728;28;20205;-66
2023/01/12 08:15:27;;;;;;;5.20;3.08;;;;;;;;;;5115478;28;20625;-66
2023/01/12 08:17:57;;;;;;;6.13;3.50;;;;;;;;;;5127634;27;20310;-66
2023/01/12 08:20:28;;;;;;;7.28;3.17;;;;;;;;;;5136109;27;20293;-66
2023/01/12 08:22:59;;;;;;;6.50;3.33;;;;;;;;;;5136181;27;20234;-67
2023/01/12 08:25:31;;;;;;;8.27;3.50;;;;;;;;;;5136207;28;20413;-64
2023/01/12 08:28:01;;;;;;;5.72;3.20;;;;;;;;;;5136459;28;20202;-66
2023/01/12 08:30:29;;;;;;;7.40;3.30;;;;;;;;;;5136381;27;20751;-64
2023/01/12 08:32:59;;;;;;;7.03;3.38;;;;;;;;;;5136478;27;20202;-64
2023/01/12 08:35:28;;;;;;;6.65;3.25;;;;;;;;;;5135732;27;20316;-67
2023/01/12 08:37:55;;;;;;;5.82;3.20;;;;;;;;;;5135347;27;20202;-64
2023/01/12 08:41:31;;;;;;;6.20;3.20;;;;;;;;;;5135211;27;20298;-64
2023/01/12 08:44:00;;;;;;;7.10;3.53;;;;;;;;;;5135974;27;20700;-64
2023/01/12 08:46:06;;;;;;;6.55;2.90;;;;;;;;;;5134916;27;20209;-64
2023/01/12 08:48:35;;;;;;;5.07;2.97;;;;;;;;;;5135708;27;20218;-64
2023/01/12 08:51:03;;;;;;;4.70;2.83;;;;;;;;;;5135516;28;20201;-66
2023/01/12 08:53:30;;;;;;;5.22;2.80;;;;;;;;;;5135784;27;20341;-66
2023/01/12 08:55:57;;;;;;;5.47;3.15;;;;;;;;;;5136215;27;20222;-65
2023/01/12 08:58:25;;;;;;;5.55;3.17;;;;;;;;;;5135602;27;20289;-64
2023/01/12 09:00:52;;;;;;;5.65;2.95;;;;;;;;;;5133097;27;20658;-64
2023/01/12 09:03:20;;;;;;;5.30;2.60;;;;;;;;;;5135257;28;20228;-66
2023/01/12 09:05:48;;;;;;;5.75;3.20;;;;;;;;;;5137475;27;20249;-64
2023/01/12 09:08:17;;;;;;;5.05;3.03;;;;;;;;;;5137610;27;20204;-64
2023/01/12 09:10:44;;;;;;;4.95;3.13;;;;;;;;;;5139024;27;20202;-65
2023/01/12 09:13:14;;;;;;;5.30;2.72;;;;;;;;;;5138060;27;20202;-64
2023/01/12 09:15:42;;;;;;;4.72;2.47;;;;;;;;;;5137778;27;20222;-64
2023/01/12 09:18:09;;;;;;;5.05;2.97;;;;;;;;;;5138544;27;20208;-66
2023/01/12 09:20:36;;;;;;;4.82;2.38;;;;;;;;;;5139212;27;20212;-65
2023/01/12 09:23:05;;;;;;;4.07;2.67;;;;;;;;;;5138805;27;20208;-66
2023/01/12 09:25:33;;;;;;;4.22;2.55;;;;;;;;;;5137990;27;20199;-64
2023/01/12 09:28:00;;;;;;;6.15;2.88;;;;;;;;;;5138578;27;20301;-64
2023/01/12 09:30:27;;;;;;;3.33;2.53;;;;;;;;;;5139247;27;20553;-64
2023/01/12 09:32:55;;;;;;;5.10;2.60;;;;;;;;;;5138134;27;20317;-64
2023/01/12 09:35:23;;;;;;;4.97;2.60;;;;;;;;;;5138487;27;20309;-65
2023/01/12 09:37:50;;;;;;;4.30;2.55;;;;;;;;;;5138690;27;20209;-65
2023/01/12 09:40:20;;;;;;;4.25;2.45;;;;;;;;;;5139423;27;20308;-68
2023/01/12 09:48:22;;;;;;;4.63;2.58;;;;;;;;;;5138596;27;20600;-64
2023/01/12 09:50:53;;;;;;;4.57;2.28;;;;;;;;;;5138783;27;20203;-67
2023/01/12 09:53:22;;;;;;;3.30;2.10;;;;;;;;;;5138209;27;20735;-64
2023/01/12 09:55:58;;;;;;;4.65;2.03;;;;;;;;;;5139499;27;20228;-65
2023/01/12 09:58:30;;;;;;;4.35;2.20;;;;;;;;;;5138264;27;20281;-64
2023/01/12 10:00:59;;;;;;;3.78;2.10;;;;;;;;;;5138874;27;20547;-64
2023/01/12 10:03:30;;;;;;;2.88;1.92;;;;;;;;;;5138507;27;20293;-64
2023/01/12 10:05:59;;;;;;;3.13;2.00;;;;;;;;;;5137881;27;20289;-64
2023/01/12 10:08:30;;;;;;;3.53;2.10;;;;;;;;;;5138072;27;20205;-64
2023/01/12 10:11:11;;;;;;;3.15;2.20;;;;;;;;;;5137629;27;20248;-64
2023/01/12 10:14:03;;;;;;;3.22;1.90;;;;;;;;;;5137490;27;20201;-65
2023/01/12 10:16:37;;;;;;;4.65;2.28;;;;;;;;;;5137219;27;20317;-65
2023/01/12 10:19:07;;;;;;;3.65;1.88;;;;;;;;;;5138225;27;20241;-64
2023/01/12 10:21:35;;;;;;;2.40;1.42;;;;;;;;;;5137204;27;20245;-64
2023/01/12 10:24:03;;;;;;;5.90;1.80;;;;;;;;;;5138368;27;20595;-64
2023/01/12 10:26:37;;;;;;;4.20;1.98;;;;;;;;;;5137906;27;20198;-64
2023/01/12 10:29:04;;;;;;;3.35;1.70;;;;;;;;;;5137151;27;20201;-64
2023/01/12 10:31:32;;;;;;;3.40;1.80;;;;;;;;;;5136823;27;20693;-65
2023/01/12 10:34:03;;;;;;;4.53;1.90;;;;;;;;;;5136004;27;20202;-67
2023/01/12 10:36:31;;;;;;;3.78;1.80;;;;;;;;;;5137559;27;20359;-65
2023/01/12 10:39:02;;;;;;;2.38;1.55;;;;;;;;;;5137146;27;20210;-64
2023/01/12 10:41:29;;;;;;;3.95;1.98;;;;;;;;;;5136998;27;20205;-65
2023/01/12 10:44:13;;;;;;;3.10;1.60;;;;;;;;;;5137925;27;20220;-66
2023/01/12 10:46:40;;;;;;;3.97;1.70;;;;;;;;;;5136997;27;20590;-65
2023/01/12 10:49:16;;;;;;;2.95;1.45;;;;;;;;;;5136363;27;20206;-66
2023/01/12 10:51:50;;;;;;;2.88;1.50;;;;;;;;;;5135550;27;20240;-64
2023/01/12 10:54:19;;;;;;;2.95;1.55;;;;;;;;;;5136904;27;20238;-66
2023/01/12 10:56:54;;;;;;;2.78;1.30;;;;;;;;;;5136594;27;20198;-66
2023/01/12 10:59:27;;;;;;;2.95;1.60;;;;;;;;;;5135577;27;20286;-66
2023/01/12 11:02:11;;;;;;;2.35;1.23;;;;;;;;;;5135760;27;20198;-66
2023/01/12 11:04:39;;;;;;;2.97;1.60;;;;;;;;;;5135411;27;20314;-66
2023/01/12 11:07:10;;;;;;;1.95;1.25;;;;;;;;;;5135388;27;20208;-66
2023/01/12 11:09:37;;;;;;;2.58;1.52;;;;;;;;;;5134858;27;20202;-66
2023/01/12 11:12:07;;;;;;;2.88;1.33;;;;;;;;;;5136182;27;20198;-66
2023/01/12 11:14:37;;;;;;;2.75;1.38;;;;;;;;;;5135923;27;20202;-66
2023/01/12 11:17:19;;;;;;;1.88;1.20;;;;;;;;;;5135517;27;20196;-67
2023/01/12 11:19:48;;;;;;;1.98;1.35;;;;;;;;;;5134313;27;20661;-68
2023/01/12 11:22:19;;;;;;;1.40;0.95;;;;;;;;;;5135024;27;20677;-66
2023/01/12 11:24:51;;;;;;;2.97;1.10;;;;;;;;;;5136196;27;20313;-66
2023/01/12 11:27:23;;;;;;;2.13;1.25;;;;;;;;;;5137029;27;20293;-66
2023/01/12 11:29:58;;;;;;;3.45;1.15;;;;;;;;;;5153193;27;20193;-66
2023/01/12 11:32:29;;;;;;;2.10;1.25;;;;;;;;;;5155829;27;20209;-67
2023/01/12 11:34:58;;;;;;;1.30;1.00;;;;;;;;;;5155720;27;20220;-67
2023/01/12 11:37:25;;;;;;;2.28;1.17;;;;;;;;;;5155822;27;20193;-67
2023/01/12 11:39:58;;;;;;;2.55;1.20;;;;;;;;;;5155828;27;20197;-67
2023/01/12 11:45:18;;;;;;;1.63;1.30;;;;;;;;;;5155986;27;20237;-66
2023/01/12 11:47:49;;;;;;;1.38;1.05;;;;;;;;;;5155057;27;20205;-67
2023/01/12 11:50:19;;;;;;;2.20;1.20;;;;;;;;;;5155308;27;20289;-66
2023/01/12 11:52:46;;;;;;;1.90;1.33;;;;;;;;;;5154539;27;20202;-66
2023/01/12 11:55:15;;;;;;;1.60;1.00;;;;;;;;;;5154749;27;20735;-66
2023/01/12 11:57:51;;;;;;;2.00;1.15;;;;;;;;;;5155337;27;20201;-67
2023/01/12 12:00:34;;;;;;;1.65;1.08;;;;;;;;;;5155811;27;20193;-66
2023/01/12 12:03:08;;;;;;;1.90;1.00;;;;;;;;;;5155599;27;20288;-66
2023/01/12 12:05:43;;;;;;;1.80;1.20;;;;;;;;;;5155803;27;20193;-66
2023/01/12 12:08:16;;;;;;;2.42;1.30;;;;;;;;;;5155593;27;20212;-66
2023/01/12 12:10:46;;;;;;;1.75;1.10;;;;;;;;;;5156009;27;20204;-66
2023/01/12 12:13:26;;;;;;;1.73;1.00;;;;;;;;;;5155714;27;20201;-66
2023/01/12 12:16:03;;;;;;;1.48;0.80;;;;;;;;;;5155199;27;20221;-67
2023/01/12 12:18:37;;;;;;;1.58;1.00;;;;;;;;;;5154678;27;20299;-67
2023/01/12 12:21:10;;;;;;;1.38;1.05;;;;;;;;;;5155642;27;20588;-66
2023/01/12 12:23:41;;;;;;;1.17;0.90;;;;;;;;;;5156208;27;20228;-67
2023/01/12 12:26:12;;;;;;;1.38;1.08;;;;;;;;;;5155816;27;20501;-67
2023/01/12 12:28:48;;;;;;;1.25;0.80;;;;;;;;;;5154731;27;20201;-66
2023/01/12 12:31:38;;;;;;;1.33;0.80;;;;;;;;;;5154989;27;20201;-67
2023/01/12 12:34:19;;;;;;;1.30;0.90;;;;;;;;;;5130359;27;20253;-66
2023/01/12 12:36:50;;;;;;;1.20;0.80;;;;;;;;;;5155202;27;20697;-66
2023/01/12 12:39:31;;;;;;;1.73;1.05;;;;;;;;;;5154673;27;20748;-67
2023/01/12 12:47:52;;;;;;;1.42;0.90;;;;;;;;;;5158027;27;20572;-66
2023/01/12 12:50:24;;;;;;;1.20;0.90;;;;;;;;;;5158727;27;20620;-66
2023/01/12 12:53:03;;;;;;;1.55;0.80;;;;;;;;;;5159329;27;20207;-67
2023/01/12 12:55:31;;;;;;;1.30;1.05;;;;;;;;;;5158679;27;20634;-67
2023/01/12 12:57:59;;;;;;;1.33;0.82;;;;;;;;;;5158956;27;20309;-67
2023/01/12 13:00:32;;;;;;;1.15;1.05;;;;;;;;;;5158033;27;20248;-66
2023/01/12 13:03:00;;;;;;;1.45;0.80;;;;;;;;;;5159253;27;20213;-67
2023/01/12 13:05:42;;;;;;;0.85;0.80;;;;;;;;;;5158198;27;20198;-66
2023/01/12 13:08:20;;;;;;;1.00;0.75;;;;;;;;;;5159708;27;20236;-67
2023/01/12 13:10:49;;;;;;;0.98;0.70;;;;;;;;;;5158044;27;20198;-66
2023/01/12 13:13:32;;;;;;;2.13;0.90;;;;;;;;;;5158482;27;20205;-67
2023/01/12 13:16:17;;;;;;;1.63;0.70;;;;;;;;;;5158659;27;20708;-68
2023/01/12 13:19:05;;;;;;;1.58;0.90;;;;;;;;;;5141533;27;20446;-66
2023/01/12 13:21:55;;;;;;;0.90;0.77;;;;;;;;;;5158307;27;20197;-67
2023/01/12 13:24:42;;;;;;;1.42;0.90;;;;;;;;;;5158928;27;20255;-67
2023/01/12 13:27:28;;;;;;;0.95;0.90;;;;;;;;;;5158489;27;20224;-66
2023/01/12 13:30:19;;;;;;;1.45;1.05;;;;;;;;;;5158271;27;20469;-66
2023/01/12 13:32:58;;;;;;;0.77;0.77;;;;;;;;;;5157880;27;20201;-66
2023/01/12 13:35:30;;;;;;;0.88;0.77;;;;;;;;;;5158362;27;20209;-66
2023/01/12 13:38:03;;;;;;;0.80;0.80;;;;;;;;;;5158401;27;20204;-66
2023/01/12 13:40:32;;;;;;;1.10;0.82;;;;;;;;;;5158199;27;20265;-67
2023/01/12 13:43:18;;;;;;;1.17;0.90;;;;;;;;;;5157514;27;20648;-66
2023/01/12 13:45:51;;;;;;;1.00;0.70;;;;;;;;;;5158178;27;20204;-67
2023/01/12 13:48:19;;;;;;;1.42;0.80;;;;;;;;;;5158120;27;20197;-67
2023/01/12 13:50:48;;;;;;;0.98;0.80;;;;;;;;;;5157216;27;20304;-67
2023/01/12 13:53:22;;;;;;;1.25;0.73;;;;;;;;;;5152063;27;20555;-66
2023/01/12 13:55:56;;;;;;;1.15;0.73;;;;;;;;;;5137221;27;20317;-64
2023/01/12 13:58:23;;;;;;;0.70;0.63;;;;;;;;;;5135713;27;20208;-66
2023/01/12 14:00:54;;;;;;;1.02;0.70;;;;;;;;;;5136225;27;20569;-66
2023/01/12 14:03:27;;;;;;;0.93;0.55;;;;;;;;;;5135487;27;20202;-66
2023/01/12 14:05:59;;;;;;;1.08;0.70;;;;;;;;;;5136957;27;20194;-66
2023/01/12 14:08:38;;;;;;;0.70;0.60;;;;;;;;;;5137297;27;20809;-66
2023/01/12 14:11:11;;;;;;;0.93;0.60;;;;;;;;;;5136668;27;20198;-67
2023/01/12 14:13:46;;;;;;;1.15;0.50;;;;;;;;;;5137095;27;20203;-65
2023/01/12 14:19:00;;;;;;;1.15;0.70;;;;;;;;;;5136032;27;20193;-67
2023/01/12 14:21:30;;;;;;;0.63;0.60;;;;;;;;;;5137035;27;20644;-64
2023/01/12 14:24:14;;;;;;;0.70;0.52;;;;;;;;;;5135523;27;20234;-67
2023/01/12 14:26:41;;;;;;;0.60;0.57;;;;;;;;;;5136091;27;20198;-66
2023/01/12 14:29:10;;;;;;;0.70;0.55;;;;;;;;;;5137264;27;20714;-66
2023/01/12 14:31:39;;;;;;;0.68;0.50;;;;;;;;;;5134771;27;20190;-66
2023/01/12 14:34:08;;;;;;;0.57;0.52;;;;;;;;;;5114676;28;20226;-65
2023/01/12 14:36:37;;;;;;;0.93;0.63;;;;;;;;;;5115554;28;20315;-65
2023/01/12 14:39:08;;;;;;;0.77;0.77;;;;;;;;;;5115681;28;20209;-64
2023/01/12 14:47:08;;;;;;;0.80;0.70;;;;;;;;;;5114891;28;20718;-66
2023/01/12 14:49:37;;;;;;;0.80;0.70;;;;;;;;;;5115404;28;20249;-66
2023/01/12 14:52:21;;;;;;;0.60;0.50;;;;;;;;;;5115005;28;20301;-67
2023/01/12 14:54:50;;;;;;;0.60;0.50;;;;;;;;;;5131313;27;20232;-66
2023/01/12 14:57:21;;;;;;;0.77;0.55;;;;;;;;;;5135812;27;20313;-66
2023/01/12 14:59:50;;;;;;;0.70;0.63;;;;;;;;;;5135216;27;20234;-66
2023/01/12 15:02:29;;;;;;;0.70;0.57;;;;;;;;;;5134862;27;20808;-64
2023/01/12 15:04:58;;;;;;;0.55;0.50;;;;;;;;;;5136098;27;20198;-65
2023/01/12 15:07:28;;;;;;;0.80;0.50;;;;;;;;;;5135471;27;20198;-66
2023/01/12 15:09:56;;;;;;;0.40;0.40;;;;;;;;;;5135361;27;20544;-64
2023/01/12 15:12:47;;;;;;;0.65;0.63;;;;;;;;;;5134939;27;20286;-67
2023/01/12 15:15:17;;;;;;;0.73;0.50;;;;;;;;;;5115459;27;20198;-64
2023/01/12 15:26:00;;;;;;;0.85;0.50;;;;;;;;;;5135348;27;20728;-64
2023/01/12 15:28:29;;;;;;;0.73;0.50;;;;;;;;;;5136753;27;20202;-66
2023/01/12 15:30:57;;;;;;;0.73;0.73;;;;;;;;;;5135811;27;20604;-66
2023/01/12 15:33:25;;;;;;;0.50;0.50;;;;;;;;;;5135150;27;20202;-66
2023/01/12 15:35:52;;;;;;;0.77;0.60;;;;;;;;;;5135308;27;20456;-66
2023/01/12 15:38:26;;;;;;;0.88;0.60;;;;;;;;;;5134158;27;20242;-67
2023/01/12 15:40:58;;;;;;;0.50;0.50;;;;;;;;;;5114655;28;20205;-65
2023/01/12 15:43:30;;;;;;;0.73;0.70;;;;;;;;;;5115548;28;20210;-64
2023/01/12 15:45:59;;;;;;;1.00;0.40;;;;;;;;;;5113918;28;20209;-64
2023/01/12 15:48:27;;;;;;;0.70;0.47;;;;;;;;;;5114945;28;20293;-66
2023/01/12 15:50:54;;;;;;;0.65;0.52;;;;;;;;;;5114775;28;20755;-66
2023/01/12 15:53:24;;;;;;;0.55;0.50;;;;;;;;;;5119384;27;20336;-66
2023/01/12 15:55:51;;;;;;;0.70;0.50;;;;;;;;;;5134580;27;20213;-66
2023/01/12 15:58:19;;;;;;;0.80;0.60;;;;;;;;;;5134977;27;20267;-66
2023/01/12 16:00:46;;;;;;;1.02;0.68;;;;;;;;;;5135542;27;20198;-67